Time;durP1;ratioP1;P1;durP2;ratioP2;P2;SDS_P1;SDS_P2;PMS_P1;PMS_P2;Temp;Humidity;BMP_temperature;BMP_pressure;BME280_temperature;BME280_humidity;BME280_pressure;Samples;Min_cycle;Max_cycle;Signal;HPM_P1;HPM_P2
2022/09/30 04:22:33;;;;;;;14.07;5.05;;;;;;;8.11;100.00;99496.38;5105612;28;20327;-64
2022/09/30 04:24:59;;;;;;;15.98;5.32;;;;;;;8.14;100.00;99503.97;5109699;28;20061;-65
2022/09/30 04:27:25;;;;;;;15.93;6.25;;;;;;;8.20;100.00;99507.75;5109516;28;20490;-65
2022/09/30 04:29:50;;;;;;;21.77;7.40;;;;;;;8.22;100.00;99503.13;5109537;28;20036;-65
2022/09/30 04:32:15;;;;;;;23.17;7.60;;;;;;;8.27;100.00;99503.41;5109254;28;20032;-65
2022/09/30 04:34:41;;;;;;;12.27;6.18;;;;;;;8.28;100.00;99505.06;5109928;28;20040;-64
2022/09/30 04:37:06;;;;;;;17.75;7.07;;;;;;;8.31;100.00;99507.34;5109260;28;20034;-62
2022/09/30 04:39:32;;;;;;;16.67;6.88;;;;;;;8.34;100.00;99509.66;5109430;28;20468;-62
2022/09/30 04:41:57;;;;;;;16.90;5.78;;;;;;;8.38;100.00;99507.50;5109060;28;20092;-62
2022/09/30 04:44:23;;;;;;;18.80;6.90;;;;;;;8.42;100.00;99511.47;5109733;28;20374;-60
2022/09/30 04:46:49;;;;;;;14.20;6.05;;;;;;;8.42;100.00;99508.81;5109060;28;20055;-59
2022/09/30 04:49:14;;;;;;;21.98;7.68;;;;;;;8.45;100.00;99515.59;5109188;28;20108;-62
2022/09/30 04:51:42;;;;;;;15.63;5.85;;;;;;;8.45;100.00;99511.09;5108694;28;20081;-62
2022/09/30 04:54:08;;;;;;;;;;;;;;;8.42;100.00;99509.66;5109466;28;20546;-59
2022/09/30 04:56:33;;;;;;;13.27;5.97;;;;;;;8.44;100.00;99501.50;5108953;28;19928;-61
2022/09/30 04:58:58;;;;;;;11.88;5.47;;;;;;;8.41;100.00;99513.31;5108900;28;20040;-63
2022/09/30 05:01:24;;;;;;;18.05;5.88;;;;;;;8.45;100.00;99511.09;5108628;28;20054;-62
2022/09/30 05:03:49;;;;;;;15.73;6.32;;;;;;;8.45;100.00;99502.31;5108847;28;20036;-59
2022/09/30 05:06:15;;;;;;;17.33;6.05;;;;;;;8.45;100.00;99500.50;5108817;28;20056;-61
2022/09/30 05:08:42;;;;;;;20.63;6.03;;;;;;;8.43;100.00;99511.28;5108856;28;20036;-62
2022/09/30 05:11:12;;;;;;;17.17;6.13;;;;;;;8.47;100.00;99513.56;5108248;28;20028;-60
2022/09/30 05:13:39;;;;;;;21.00;6.88;;;;;;;8.47;100.00;99514.41;5108603;28;20485;-62
2022/09/30 05:16:06;;;;;;;13.60;5.63;;;;;;;8.43;100.00;99524.56;5108521;28;20496;-63
2022/09/30 05:18:35;;;;;;;14.95;5.07;;;;;;;8.44;100.00;99522.72;5108580;28;20495;-59
2022/09/30 05:21:02;;;;;;;17.73;5.97;;;;;;;8.47;100.00;99525.00;5108098;28;20497;-62
2022/09/30 05:23:29;;;;;;;12.90;5.30;;;;;;;8.46;100.00;99525.19;5108536;28;20104;-58
2022/09/30 05:25:56;;;;;;;17.52;5.35;;;;;;;8.43;100.00;99527.22;5108436;28;20032;-61
2022/09/30 05:28:22;;;;;;;15.48;6.30;;;;;;;8.42;100.00;99533.53;5108379;28;20036;-63
2022/09/30 05:30:49;;;;;;;17.63;6.32;;;;;;;8.41;100.00;99537.19;5108274;28;20094;-61
2022/09/30 05:33:14;;;;;;;18.00;6.30;;;;;;;8.39;100.00;99539.16;5098583;28;20040;-59
2022/09/30 05:35:41;;;;;;;21.98;5.72;;;;;;;8.45;100.00;99542.13;5094553;28;20044;-61
2022/09/30 05:38:08;;;;;;;15.73;6.13;;;;;;;8.46;100.00;99538.47;5094668;28;20043;-61
2022/09/30 05:40:37;;;;;;;21.05;6.85;;;;;;;8.43;100.00;99540.47;5094234;28;20587;-61
2022/09/30 05:43:02;;;;;;;18.15;6.45;;;;;;;8.39;100.00;99544.47;5094614;28;20044;-60
2022/09/30 05:45:27;;;;;;;21.85;5.93;;;;;;;8.36;100.00;99538.72;5093148;28;20063;-64
2022/09/30 05:47:54;;;;;;;15.38;5.88;;;;;;;8.36;100.00;99558.13;5094443;28;20036;-62
2022/09/30 05:50:21;;;;;;;16.63;6.00;;;;;;;8.28;100.00;99554.63;5094002;28;20036;-63
2022/09/30 05:52:47;;;;;;;21.23;6.93;;;;;;;8.18;100.00;99546.91;5092983;28;20136;-62
2022/09/30 05:55:12;;;;;;;20.02;6.53;;;;;;;8.22;100.00;99558.00;5094175;28;20115;-65
2022/09/30 05:57:38;;;;;;;15.63;6.18;;;;;;;8.24;100.00;99567.44;5092960;28;20127;-62
2022/09/30 06:00:05;;;;;;;14.43;6.40;;;;;;;8.28;100.00;99574.06;5076051;28;20175;-64
2022/09/30 06:02:37;;;;;;;14.40;6.40;;;;;;;8.29;100.00;99572.22;5073892;28;20048;-62
2022/09/30 06:05:04;;;;;;;12.90;5.65;;;;;;;8.29;100.00;99583.66;5073958;28;20032;-61
2022/09/30 06:07:31;;;;;;;18.73;6.70;;;;;;;8.28;100.00;99589.97;5073952;28;20546;-64
2022/09/30 06:09:57;;;;;;;15.55;7.22;;;;;;;8.29;100.00;99594.28;5073648;28;20036;-60
2022/09/30 06:12:23;;;;;;;15.35;6.13;;;;;;;8.35;100.00;99598.94;5073556;28;20040;-61
2022/09/30 06:14:49;;;;;;;14.25;5.82;;;;;;;8.38;100.00;99608.34;5073824;28;20033;-61
2022/09/30 06:17:17;;;;;;;15.23;5.32;;;;;;;8.40;100.00;99603.69;5072515;28;20492;-61
2022/09/30 06:19:42;;;;;;;16.98;5.80;;;;;;;8.43;100.00;99617.44;5073640;28;20481;-61
2022/09/30 06:22:08;;;;;;;15.98;6.82;;;;;;;8.50;100.00;99622.06;5073184;28;20051;-63
2022/09/30 06:24:33;;;;;;;16.30;6.35;;;;;;;8.50;100.00;99624.72;5073483;28;20214;-61
2022/09/30 06:26:59;;;;;;;20.08;6.07;;;;;;;8.53;100.00;99633.16;5073391;28;20037;-62
2022/09/30 06:29:24;;;;;;;16.13;5.80;;;;;;;8.52;100.00;99626.19;5073490;28;20047;-62
2022/09/30 06:31:49;;;;;;;17.67;5.80;;;;;;;8.58;100.00;99646.72;5072959;28;20445;-63
2022/09/30 06:34:15;;;;;;;19.17;6.82;;;;;;;8.64;100.00;99647.84;5072123;28;20105;-64
2022/09/30 06:36:40;;;;;;;18.05;7.38;;;;;;;8.64;100.00;99647.84;5073331;28;20109;-63
2022/09/30 06:39:06;;;;;;;19.67;6.57;;;;;;;8.70;100.00;99647.16;5073215;28;20374;-62
2022/09/30 06:41:31;;;;;;;25.85;7.18;;;;;;;8.73;100.00;99645.97;5073118;28;20043;-62
2022/09/30 06:43:56;;;;;;;22.75;7.60;;;;;;;8.81;100.00;99652.06;5072220;28;20448;-64
2022/09/30 06:46:24;;;;;;;18.85;6.72;;;;;;;8.85;100.00;99642.72;5072990;28;20048;-62
2022/09/30 06:48:54;;;;;;;13.15;5.97;;;;;;;8.91;100.00;99652.66;5073058;28;20036;-64
2022/09/30 06:51:19;;;;;;;22.27;7.85;;;;;;;9.00;100.00;99658.75;5072657;28;20500;-63
2022/09/30 06:53:49;;;;;;;29.90;9.52;;;;;;;9.10;100.00;99658.50;5072737;28;20048;-63
2022/09/30 06:56:16;;;;;;;28.83;11.45;;;;;;;9.20;100.00;99657.28;5072877;28;20028;-62
2022/09/30 06:58:44;;;;;;;24.70;10.27;;;;;;;9.20;100.00;99661.75;5072818;28;20029;-50
2022/09/30 07:01:13;;;;;;;27.50;10.15;;;;;;;9.27;100.00;99661.88;5072355;28;20279;-50
2022/09/30 07:03:38;;;;;;;20.80;8.63;;;;;;;9.27;100.00;99660.03;5072576;28;20382;-52
2022/09/30 07:06:05;;;;;;;23.60;7.97;;;;;;;9.37;100.00;99657.94;5073162;28;20041;-49
2022/09/30 07:08:32;;;;;;;16.55;7.57;;;;;;;9.47;100.00;99655.88;5072456;28;20042;-52
2022/09/30 07:11:04;;;;;;;32.78;13.95;;;;;;;9.60;100.00;99651.78;5072078;28;20128;-51
2022/09/30 07:13:29;;;;;;;27.83;12.30;;;;;;;9.52;100.00;99653.50;5071278;28;20089;-61
2022/09/30 07:15:56;;;;;;;21.45;9.68;;;;;;;9.62;100.00;99653.22;5072328;28;20041;-61
2022/09/30 07:18:23;;;;;;;19.38;7.50;;;;;;;9.72;100.00;99652.97;5071040;28;20037;-63
2022/09/30 07:20:53;;;;;;;16.37;8.13;;;;;;;9.71;100.00;99656.63;5071776;28;20081;-62
2022/09/30 07:23:20;;;;;;;22.20;7.95;;;;;;;9.76;100.00;99662.22;5072147;28;20369;-61
2022/09/30 07:25:57;;;;;;;20.75;8.23;;;;;;;9.84;100.00;99664.78;5072114;28;20040;-63
2022/09/30 07:28:30;;;;;;;18.52;7.90;;;;;;;9.93;100.00;99673.53;5072204;28;20032;-63
2022/09/30 07:30:57;;;;;;;22.08;7.95;;;;;;;9.98;100.00;99671.97;5071764;28;20041;-62
2022/09/30 07:33:25;;;;;;;19.08;8.45;;;;;;;9.95;100.00;99675.00;5070756;28;20110;-63
2022/09/30 07:35:55;;;;;;;21.20;8.52;;;;;;;10.02;100.00;99675.91;5072078;28;20036;-63
2022/09/30 07:38:24;;;;;;;15.88;7.55;;;;;;;10.05;100.00;99688.88;5071932;28;20036;-63
2022/09/30 07:40:57;;;;;;;21.77;9.10;;;;;;;10.02;100.00;99693.72;5071699;28;20095;-62
2022/09/30 07:43:24;;;;;;;20.58;8.30;;;;;;;10.11;100.00;99691.81;5072038;28;20036;-62
2022/09/30 07:45:50;;;;;;;22.40;9.25;;;;;;;10.12;100.00;99688.97;5071838;28;20121;-62
2022/09/30 07:50:59;;;;;;;20.92;7.97;;;;;;;10.19;100.00;99702.34;5071568;28;20386;-63
2022/09/30 07:53:25;;;;;;;15.98;7.10;;;;;;;10.25;100.00;99702.47;5071725;28;20052;-63
2022/09/30 07:55:50;;;;;;;18.55;7.88;;;;;;;10.38;100.00;99715.13;5071394;28;20089;-63
2022/09/30 07:58:16;;;;;;;22.95;10.90;;;;;;;10.42;100.00;99704.94;5071662;28;20111;-62
2022/09/30 08:00:41;;;;;;;19.73;8.98;;;;;;;10.51;100.00;99714.47;5071437;28;20032;-63
2022/09/30 08:03:07;;;;;;;16.50;7.32;;;;;;;10.62;100.00;99718.50;5071673;28;20043;-63
2022/09/30 08:05:38;;;;;;;18.48;7.82;;;;;;;10.60;100.00;99716.84;5071579;28;20131;-61
2022/09/30 08:08:05;;;;;;;19.95;8.95;;;;;;;10.77;100.00;99721.97;5071652;28;20032;-62
2022/09/30 08:10:34;;;;;;;19.67;9.27;;;;;;;10.92;100.00;99724.59;5071274;28;20043;-62
2022/09/30 08:12:59;;;;;;;20.40;8.68;;;;;;;11.11;100.00;99724.00;5071856;28;20347;-63
2022/09/30 08:15:25;;;;;;;18.95;8.82;;;;;;;11.12;100.00;99717.63;5071521;28;20166;-62
2022/09/30 08:17:50;;;;;;;18.02;8.88;;;;;;;11.26;100.00;99713.25;5071481;28;20502;-62
2022/09/30 08:20:15;;;;;;;17.33;8.48;;;;;;;11.37;100.00;99734.09;5070982;28;20040;-63
2022/09/30 08:22:41;;;;;;;18.98;8.60;;;;;;;11.46;100.00;99724.09;5071573;28;20047;-63
2022/09/30 08:25:06;;;;;;;15.60;7.45;;;;;;;11.50;100.00;99739.53;5071380;28;20123;-62
2022/09/30 08:27:32;;;;;;;16.65;8.45;;;;;;;11.61;100.00;99748.88;5071273;28;20077;-62
2022/09/30 08:29:57;;;;;;;16.25;8.23;;;;;;;11.76;100.00;99746.94;5071328;28;20037;-63
2022/09/30 08:32:23;;;;;;;19.23;7.88;;;;;;;12.06;100.00;99752.97;5071150;28;20477;-63
2022/09/30 08:34:48;;;;;;;21.15;8.15;;;;;;;12.22;100.00;99755.31;5071272;28;20049;-63
2022/09/30 08:37:13;;;;;;;14.32;7.75;;;;;;;12.36;100.00;99755.41;5071266;28;20115;-63
2022/09/30 08:39:39;;;;;;;16.58;8.38;;;;;;;12.41;99.54;99750.31;5071246;28;20040;-63
2022/09/30 08:42:24;;;;;;;15.60;7.78;;;;;;;12.56;99.08;99752.84;5070929;28;20037;-63
2022/09/30 08:44:49;;;;;;;23.83;8.77;;;;;;;12.55;97.06;99761.88;5071250;28;20119;-62
2022/09/30 08:47:35;;;;;;;17.48;7.53;;;;;;;12.67;97.36;99774.50;5071181;28;20123;-63
2022/09/30 08:50:07;;;;;;;19.77;8.15;;;;;;;12.54;97.59;99777.09;5071125;28;20090;-63
2022/09/30 08:52:37;;;;;;;19.15;7.88;;;;;;;12.55;98.89;99778.75;5071036;28;20029;-63
2022/09/30 08:55:04;;;;;;;16.77;8.18;;;;;;;12.62;98.19;99790.28;5069865;28;20461;-63
2022/09/30 08:57:42;;;;;;;15.98;9.23;;;;;;;12.50;99.09;99783.84;5071216;28;20036;-61
2022/09/30 09:00:10;;;;;;;;;;;;;;;12.56;100.00;99785.72;5071484;28;20143;-63
2022/09/30 09:02:57;;;;;;;16.77;9.20;;;;;;;12.53;100.00;99790.66;5071011;28;19919;-62
2022/09/30 09:05:29;;;;;;;21.02;8.77;;;;;;;12.48;99.59;99793.91;5071127;28;20401;-63
2022/09/30 09:08:23;;;;;;;16.17;9.00;;;;;;;12.21;100.00;99793.72;5072473;28;20051;-63
2022/09/30 09:11:07;;;;;;;17.45;9.50;;;;;;;12.29;100.00;99805.28;5074581;28;20094;-62
2022/09/30 09:13:38;;;;;;;17.98;9.63;;;;;;;12.34;100.00;99802.84;5074899;28;20117;-62
2022/09/30 09:16:13;;;;;;;18.17;9.32;;;;;;;12.27;99.89;99802.00;5074670;28;20028;-63
2022/09/30 09:18:54;;;;;;;19.63;9.43;;;;;;;12.20;98.55;99794.75;5074716;28;20060;-62
2022/09/30 09:21:31;;;;;;;16.15;8.57;;;;;;;12.20;97.99;99791.25;5074506;28;20397;-62
2022/09/30 09:24:01;;;;;;;22.45;9.32;;;;;;;12.27;98.16;99793.97;5074704;28;20040;-62
2022/09/30 09:26:33;;;;;;;14.77;8.93;;;;;;;12.29;98.81;99789.25;5074434;28;20050;-61
2022/09/30 09:29:36;;;;;;;17.35;7.75;;;;;;;12.29;97.37;99794.59;5074690;28;20127;-59
2022/09/30 09:32:11;;;;;;;16.60;9.35;;;;;;;12.25;96.88;99774.63;5072694;28;20493;-62
2022/09/30 09:34:36;;;;;;;16.70;8.85;;;;;;;12.41;97.33;99790.38;5074614;28;20044;-62
2022/09/30 09:38:23;;;;;;;25.23;9.18;;;;;;;12.48;96.67;99775.22;5074372;28;20473;-61
2022/09/30 09:40:13;;;;;;;17.50;8.32;;;;;;;12.72;96.02;99774.72;5074172;28;20032;-62
2022/09/30 09:42:57;;;;;;;19.77;9.05;;;;;;;12.93;94.43;99773.78;5074224;28;20032;-58
2022/09/30 09:45:30;;;;;;;14.50;7.68;;;;;;;13.15;93.29;99769.13;5074166;28;20126;-58
2022/09/30 09:47:56;;;;;;;17.25;7.90;;;;;;;13.29;96.55;99770.00;5074218;28;20496;-59
2022/09/30 09:50:41;;;;;;;15.68;7.97;;;;;;;13.55;93.09;99777.25;5073676;28;20109;-61
2022/09/30 09:53:31;;;;;;;14.85;7.90;;;;;;;13.89;89.12;99778.09;5074117;28;20381;-63
2022/09/30 09:55:58;;;;;;;13.95;7.30;;;;;;;14.00;87.62;99769.44;5074034;28;20081;-60
2022/09/30 09:58:24;;;;;;;15.32;7.72;;;;;;;14.26;86.65;99774.78;5073980;28;20456;-62
2022/09/30 10:03:26;;;;;;;14.95;8.07;;;;;;;14.53;85.10;99777.44;5072571;28;20051;-62
2022/09/30 10:06:02;;;;;;;15.10;7.03;;;;;;;14.66;82.82;99777.41;5073873;28;20054;-62
2022/09/30 10:08:30;;;;;;;13.60;7.82;;;;;;;14.72;83.54;99779.22;5073738;28;20039;-61
2022/09/30 10:11:02;;;;;;;13.32;7.47;;;;;;;15.31;83.76;99775.47;5073316;28;20043;-62
2022/09/30 10:13:31;;;;;;;18.13;7.82;;;;;;;16.05;81.42;99786.56;5073687;28;20485;-62
2022/09/30 10:16:01;;;;;;;13.40;6.60;;;;;;;16.54;77.62;99791.84;5073595;28;20028;-62
2022/09/30 10:18:32;;;;;;;15.27;7.25;;;;;;;16.88;76.74;99784.25;5073517;28;20481;-62
2022/09/30 10:21:01;;;;;;;12.68;7.05;;;;;;;17.14;73.16;99784.97;5073099;28;20090;-62
2022/09/30 10:23:37;;;;;;;12.40;7.47;;;;;;;16.69;72.77;99793.34;5073506;28;20036;-61
2022/09/30 10:26:18;;;;;;;13.52;6.47;;;;;;;17.03;72.34;99795.47;5073396;28;20040;-62
2022/09/30 10:28:45;;;;;;;10.63;6.38;;;;;;;16.68;70.94;99802.47;5073591;28;20063;-62
2022/09/30 10:31:14;;;;;;;12.65;7.13;;;;;;;16.29;73.51;99799.13;5073011;28;20044;-61
2022/09/30 10:33:45;;;;;;;12.13;6.57;;;;;;;16.72;72.76;99796.44;5073722;28;20535;-62
2022/09/30 10:36:17;;;;;;;16.80;8.95;;;;;;;16.93;70.36;99789.78;5073200;28;20039;-62
2022/09/30 10:39:05;;;;;;;12.00;6.63;;;;;;;16.94;70.66;99780.66;5073140;28;20036;-61
2022/09/30 10:41:33;;;;;;;7.22;4.95;;;;;;;17.79;67.58;99794.00;5072358;28;20405;-62
2022/09/30 10:44:01;;;;;;;9.18;5.72;;;;;;;18.08;69.19;99786.91;5073048;28;20032;-58
2022/09/30 10:46:34;;;;;;;8.65;5.85;;;;;;;18.86;63.92;99777.59;5072887;28;20577;-62
2022/09/30 10:49:08;;;;;;;7.75;5.38;;;;;;;19.55;60.22;99777.56;5072922;28;20041;-61
2022/09/30 10:51:35;;;;;;;9.27;6.07;;;;;;;19.24;58.79;99785.13;5072606;28;20089;-52
2022/09/30 10:54:03;;;;;;;8.00;5.63;;;;;;;19.48;60.74;99782.28;5072887;28;20098;-54
2022/09/30 10:56:38;;;;;;;9.20;5.65;;;;;;;20.38;59.07;99788.66;5072766;28;20408;-52
2022/09/30 10:59:15;;;;;;;8.48;4.90;;;;;;;20.11;55.80;99793.94;5072819;28;20047;-52
2022/09/30 11:01:49;;;;;;;10.75;6.22;;;;;;;19.85;57.65;99787.28;5072402;28;20482;-61
2022/09/30 11:04:35;;;;;;;9.50;5.45;;;;;;;19.28;58.23;99790.84;5072639;28;20072;-59
2022/09/30 11:07:26;;;;;;;14.05;6.13;;;;;;;19.01;61.26;99774.38;5072580;28;20086;-62
2022/09/30 11:10:16;;;;;;;10.90;5.50;;;;;;;18.95;59.72;99772.66;5070618;28;20038;-62
2022/09/30 11:13:05;;;;;;;12.15;5.88;;;;;;;18.25;62.31;99778.94;5072357;28;20043;-62
2022/09/30 11:15:44;;;;;;;8.15;4.70;;;;;;;18.77;61.02;99772.81;5072228;28;20053;-61
2022/09/30 11:18:09;;;;;;;8.27;5.30;;;;;;;18.84;60.89;99773.50;5072221;28;20113;-57
2022/09/30 11:20:42;;;;;;;7.70;5.22;;;;;;;19.76;59.78;99771.50;5071999;28;20072;-59
2022/09/30 11:23:37;;;;;;;8.27;4.30;;;;;;;21.10;54.98;99775.00;5072250;28;20441;-62
2022/09/30 11:26:23;;;;;;;6.30;4.18;;;;;;;22.05;51.48;99767.25;5071854;28;20134;-62
2022/09/30 11:29:05;;;;;;;5.43;4.07;;;;;;;22.40;50.26;99770.22;5072202;28;20039;-63
2022/09/30 11:31:46;;;;;;;7.63;4.65;;;;;;;21.72;50.57;99777.31;5071214;28;20037;-62
2022/09/30 11:34:33;;;;;;;7.18;4.88;;;;;;;21.27;53.01;99777.63;5072081;28;20040;-62
2022/09/30 11:36:58;;;;;;;6.35;4.55;;;;;;;20.72;54.32;99782.13;5070717;28;20576;-63
2022/09/30 11:39:52;;;;;;;8.10;4.95;;;;;;;21.01;53.34;99784.66;5071949;28;20072;-63
2022/09/30 11:42:32;;;;;;;7.65;4.63;;;;;;;20.35;56.56;99783.75;5071715;28;20041;-63
2022/09/30 11:45:24;;;;;;;7.82;4.50;;;;;;;20.70;56.77;99786.16;5071960;28;20036;-62
2022/09/30 11:48:08;;;;;;;5.82;4.13;;;;;;;21.29;52.79;99786.34;5052434;28;20150;-60
2022/09/30 11:50:54;;;;;;;6.18;4.03;;;;;;;21.57;51.22;99774.44;5071603;28;20107;-62
2022/09/30 11:53:48;;;;;;;7.30;4.25;;;;;;;21.84;50.39;99779.81;5071787;28;20045;-61
2022/09/30 11:56:24;;;;;;;5.80;3.72;;;;;;;22.68;47.99;99771.72;5071804;28;20496;-63
2022/09/30 11:58:52;;;;;;;7.22;4.13;;;;;;;23.27;44.85;99767.88;5071805;28;20044;-61
2022/09/30 12:01:31;;;;;;;5.35;4.25;;;;;;;22.86;47.48;99770.50;5071339;28;20405;-63
2022/09/30 12:04:17;;;;;;;9.13;4.22;;;;;;;24.09;43.73;99766.91;5071727;28;20075;-63
2022/09/30 12:07:15;;;;;;;8.43;4.15;;;;;;;23.83;44.55;99768.00;5071639;28;20040;-61
2022/09/30 12:09:45;;;;;;;4.75;3.30;;;;;;;24.70;44.10;99759.69;5071583;28;20037;-63
2022/09/30 12:12:13;;;;;;;5.47;3.97;;;;;;;24.28;43.47;99769.88;5071339;28;20060;-63
2022/09/30 12:14:46;;;;;;;6.30;4.00;;;;;;;25.10;40.70;99764.19;5071546;28;20028;-63
2022/09/30 12:17:25;;;;;;;6.80;3.50;;;;;;;24.79;40.93;99763.50;5071448;28;20040;-63
2022/09/30 12:19:55;;;;;;;5.25;3.75;;;;;;;24.26;42.53;99760.34;5071543;28;20043;-63
2022/09/30 12:22:32;;;;;;;5.40;3.65;;;;;;;24.53;40.00;99763.59;5071033;28;20037;-63
2022/09/30 12:25:00;;;;;;;5.38;3.35;;;;;;;24.36;41.05;99768.50;5071384;28;20043;-64
2022/09/30 12:27:34;;;;;;;4.78;3.30;;;;;;;24.17;41.62;99767.44;5071297;28;20448;-62
2022/09/30 12:30:16;;;;;;;4.80;3.22;;;;;;;23.62;41.73;99769.09;5071280;28;20094;-64
2022/09/30 12:33:06;;;;;;;6.18;3.20;;;;;;;23.63;43.16;99771.53;5071324;28;20032;-60
2022/09/30 12:35:53;;;;;;;5.28;3.55;;;;;;;23.79;42.10;99773.16;5071320;28;20135;-56
2022/09/30 12:38:37;;;;;;;4.80;3.38;;;;;;;23.73;40.46;99773.41;5071317;28;20055;-63
2022/09/30 12:41:39;;;;;;;4.03;3.25;;;;;;;24.12;40.21;99776.41;5070864;28;20102;-59
2022/09/30 12:44:36;;;;;;;4.03;2.97;;;;;;;24.17;41.72;99768.25;5074829;28;20071;-59
2022/09/30 12:47:19;;;;;;;4.45;3.25;;;;;;;24.17;40.76;99759.25;5075190;28;20025;-56
2022/09/30 12:49:46;;;;;;;3.17;2.50;;;;;;;25.11;39.93;99761.19;5075380;28;20032;-61
2022/09/30 12:52:15;;;;;;;4.55;3.05;;;;;;;25.15;39.43;99767.69;5074753;28;20043;-64
2022/09/30 12:54:56;;;;;;;4.63;3.00;;;;;;;24.96;40.96;99768.59;5075197;28;20222;-61
2022/09/30 12:57:29;;;;;;;6.22;3.05;;;;;;;24.60;40.55;99777.72;5075153;28;20545;-57
2022/09/30 13:00:01;;;;;;;4.13;2.15;;;;;;;24.97;40.98;99773.75;5075034;28;20055;-54
2022/09/30 13:02:35;;;;;;;5.32;3.00;;;;;;;24.88;40.79;99775.44;5074716;28;20505;-56
2022/09/30 13:05:25;;;;;;;5.00;2.60;;;;;;;25.74;38.27;99773.34;5075142;28;20440;-56
2022/09/30 13:08:11;;;;;;;3.78;2.70;;;;;;;24.42;40.07;99778.31;5074919;28;20111;-52
2022/09/30 13:10:36;;;;;;;7.53;2.30;;;;;;;24.17;39.96;99770.16;5066892;28;20437;-50
2022/09/30 13:13:28;;;;;;;4.15;2.63;;;;;;;22.65;41.81;99774.97;5074677;28;20043;-61
2022/09/30 13:16:05;;;;;;;3.42;2.30;;;;;;;21.83;45.29;99776.28;5068723;28;20048;-56
2022/09/30 13:18:30;;;;;;;2.78;2.25;;;;;;;21.28;46.94;99781.97;5074706;28;20036;-59
2022/09/30 13:21:05;;;;;;;2.65;2.30;;;;;;;21.01;46.90;99777.34;5074251;28;20112;-57
2022/09/30 13:23:48;;;;;;;4.18;2.50;;;;;;;20.66;49.92;99780.41;5065456;28;20036;-55
2022/09/30 13:28:49;;;;;;;3.65;2.45;;;;;;;19.69;51.37;99773.53;5054636;28;20033;-54
2022/09/30 13:31:18;;;;;;;4.33;2.20;;;;;;;19.42;52.32;99781.38;5054318;28;20124;-57
2022/09/30 13:34:02;;;;;;;3.28;2.33;;;;;;;18.96;55.05;99783.19;5054492;28;20375;-56
2022/09/30 13:36:37;;;;;;;2.65;2.20;;;;;;;18.82;55.89;99792.63;5054414;28;20063;-52
2022/09/30 13:39:15;;;;;;;3.92;2.08;;;;;;;18.52;58.56;99782.00;5054613;28;20040;-50
2022/09/30 13:41:43;;;;;;;2.95;2.08;;;;;;;18.37;58.87;99784.31;5054223;28;20039;-53
2022/09/30 13:44:18;;;;;;;3.58;2.33;;;;;;;18.26;60.75;99774.38;5054574;28;20032;-60
2022/09/30 13:47:05;;;;;;;4.35;2.03;;;;;;;17.92;60.98;99790.28;5054359;28;20491;-60
2022/09/30 13:49:38;;;;;;;4.10;2.70;;;;;;;17.79;58.45;99787.78;5054095;28;20035;-59
2022/09/30 13:52:07;;;;;;;4.80;2.72;;;;;;;17.68;58.74;99789.41;5053876;28;20482;-60
2022/09/30 13:54:39;;;;;;;3.72;2.00;;;;;;;17.85;61.21;99789.56;5053542;28;20029;-62
2022/09/30 13:57:08;;;;;;;4.60;2.30;;;;;;;17.63;62.39;99790.06;5053886;28;20064;-60
2022/09/30 14:00:01;;;;;;;4.93;2.50;;;;;;;17.79;60.55;99796.69;5053957;28;20047;-61
2022/09/30 14:02:30;;;;;;;3.70;2.33;;;;;;;17.84;60.12;99785.22;5053661;28;20048;-60
2022/09/30 14:05:24;;;;;;;3.28;2.40;;;;;;;17.67;60.13;99784.22;5053762;28;20514;-63
2022/09/30 14:08:06;;;;;;;2.75;2.10;;;;;;;17.59;57.68;99786.19;5050666;28;20052;-60
2022/09/30 14:10:48;;;;;;;3.42;2.53;;;;;;;17.43;57.15;99786.84;5053390;28;20103;-62
2022/09/30 14:13:22;;;;;;;3.88;2.20;;;;;;;17.49;57.47;99787.81;5053681;28;20037;-60
2022/09/30 14:16:17;;;;;;;3.03;2.28;;;;;;;17.66;59.01;99780.69;5053434;28;20064;-60
2022/09/30 14:18:52;;;;;;;3.63;2.08;;;;;;;17.72;58.04;99781.69;5053591;28;20087;-61
2022/09/30 14:21:36;;;;;;;6.47;3.35;;;;;;;17.95;59.78;99780.94;5053173;28;20036;-63
2022/09/30 14:24:10;;;;;;;5.28;2.85;;;;;;;18.04;59.67;99782.22;5053698;28;20049;-63
2022/09/30 14:26:58;;;;;;;2.25;1.65;;;;;;;17.88;58.36;99770.25;5053289;28;20033;-61
2022/09/30 14:29:38;;;;;;;2.05;1.80;;;;;;;17.81;54.55;99786.53;5053318;28;20041;-63
2022/09/30 14:32:18;;;;;;;4.05;1.73;;;;;;;17.80;52.79;99773.25;5053102;28;20043;-63
2022/09/30 14:34:47;;;;;;;2.38;1.58;;;;;;;17.92;55.01;99775.97;5053345;28;20402;-62
2022/09/30 14:37:20;;;;;;;5.68;1.60;;;;;;;17.89;55.43;99770.00;5053142;28;20398;-60
2022/09/30 14:39:46;;;;;;;1.73;1.40;;;;;;;17.89;53.53;99770.00;5053219;28;20048;-63
2022/09/30 14:42:23;;;;;;;6.22;1.88;;;;;;;17.82;53.83;99768.50;5052793;28;20072;-62
2022/09/30 14:44:49;;;;;;;3.50;2.30;;;;;;;17.73;53.88;99770.69;5053078;28;20394;-60
2022/09/30 14:47:16;;;;;;;2.58;1.73;;;;;;;17.77;57.47;99762.97;5052954;28;20074;-59
2022/09/30 14:49:41;;;;;;;2.47;1.60;;;;;;;17.77;55.64;99765.66;5052972;28;20041;-62
2022/09/30 14:52:35;;;;;;;3.38;2.05;;;;;;;17.72;55.95;99760.97;5052594;28;20164;-64
2022/09/30 14:55:00;;;;;;;3.33;1.40;;;;;;;17.71;57.28;99767.41;5052832;28;20120;-64
2022/09/30 14:57:26;;;;;;;5.80;1.83;;;;;;;17.66;56.74;99764.53;5052725;28;20037;-63
2022/09/30 15:00:41;;;;;;;2.22;1.73;;;;;;;17.72;56.59;99770.91;5052860;28;20450;-62
2022/09/30 15:03:11;;;;;;;3.17;1.50;;;;;;;17.63;58.99;99776.59;5043704;28;20441;-63
2022/09/30 15:05:36;;;;;;;1.80;1.42;;;;;;;17.56;56.27;99773.19;5051628;28;20367;-64
2022/09/30 15:08:02;;;;;;;1.92;1.40;;;;;;;17.48;56.83;99776.22;5052524;28;20059;-62
2022/09/30 15:10:28;;;;;;;1.88;1.42;;;;;;;17.54;57.35;99782.53;5052331;28;20056;-61
2022/09/30 15:12:54;;;;;;;3.28;1.75;;;;;;;17.57;55.87;99774.84;5052658;28;20033;-62
2022/09/30 15:15:40;;;;;;;1.77;1.52;;;;;;;17.51;55.60;99769.56;5052711;28;20066;-62
2022/09/30 15:18:23;;;;;;;2.35;1.60;;;;;;;17.46;54.72;99775.63;5052249;28;20053;-63
2022/09/30 15:20:52;;;;;;;2.60;2.03;;;;;;;17.54;54.70;99767.22;5051763;28;20038;-62
2022/09/30 15:23:23;;;;;;;3.65;2.17;;;;;;;17.56;54.76;99770.50;5052253;28;20037;-63
2022/09/30 15:25:49;;;;;;;2.05;1.40;;;;;;;17.42;56.32;99769.06;5052236;28;20028;-64
2022/09/30 15:28:15;;;;;;;1.75;1.60;;;;;;;17.47;59.16;99773.75;5052289;28;20072;-64
2022/09/30 15:30:42;;;;;;;1.70;1.60;;;;;;;17.37;57.60;99768.94;5052009;28;20098;-64
2022/09/30 15:33:16;;;;;;;1.77;1.48;;;;;;;17.23;58.21;99779.06;5052216;28;20573;-65
2022/09/30 15:35:42;;;;;;;6.93;1.80;;;;;;;17.23;59.94;99767.47;5052023;28;20040;-65
2022/09/30 15:38:15;;;;;;;2.33;1.60;;;;;;;17.31;59.55;99772.53;5052074;28;20036;-65
2022/09/30 15:40:44;;;;;;;1.85;1.45;;;;;;;17.32;59.36;99771.47;5051564;28;20048;-65
2022/09/30 15:43:14;;;;;;;3.33;1.88;;;;;;;17.39;60.79;99766.00;5052186;28;20056;-65
2022/09/30 15:45:44;;;;;;;2.55;1.83;;;;;;;17.28;60.81;99773.81;5051847;28;20102;-64
2022/09/30 15:48:24;;;;;;;2.35;1.45;;;;;;;17.31;61.23;99769.84;5051978;28;20037;-63
2022/09/30 15:50:52;;;;;;;2.35;1.70;;;;;;;17.20;60.06;99768.72;5051658;28;20449;-64
2022/09/30 15:53:45;;;;;;;2.75;1.60;;;;;;;17.11;58.69;99769.28;5051745;28;20128;-64
2022/09/30 15:56:17;;;;;;;2.45;1.55;;;;;;;17.04;59.31;99782.84;5051732;28;20401;-61
2022/09/30 15:59:01;;;;;;;2.08;1.60;;;;;;;16.99;58.51;99764.66;5051657;28;20750;-60
2022/09/30 16:01:43;;;;;;;2.10;1.70;;;;;;;16.99;58.77;99756.59;5051389;28;20383;-61
2022/09/30 16:04:23;;;;;;;2.45;1.42;;;;;;;16.84;61.02;99772.31;5051810;28;20060;-60
2022/09/30 16:06:50;;;;;;;2.92;1.58;;;;;;;16.80;64.00;99768.44;5051565;28;20111;-62
2022/09/30 16:09:18;;;;;;;2.50;1.33;;;;;;;16.65;60.15;99762.59;5051688;28;20040;-60
2022/09/30 16:11:46;;;;;;;1.83;1.38;;;;;;;16.52;58.48;99767.06;5051301;28;20379;-61
2022/09/30 16:14:26;;;;;;;;;;;;;;;16.53;59.80;99774.06;5051949;28;20478;-61
2022/09/30 16:16:55;;;;;;;1.95;1.60;;;;;;;16.40;61.81;99774.22;5051270;28;20356;-61
2022/09/30 16:19:23;;;;;;;2.03;1.67;;;;;;;16.37;63.30;99777.34;5051592;28;20037;-62
2022/09/30 16:21:50;;;;;;;1.85;1.55;;;;;;;16.36;61.65;99777.56;5050890;28;20068;-63
2022/09/30 16:24:21;;;;;;;2.15;1.30;;;;;;;16.28;66.43;99770.63;5051529;28;20044;-63